Startpagina
METAR-TAF:

METAR-TAF

Vliegvelden :

Resolute, Nunavut, Canada

breedte: 74-43N, lengte: 094-59W, hoogte: 67 m

Actueel weer

Dit bericht is 57 minuten geleden gemaakt, om 16:00 UTC
Wind 16 kt uit het zuidoosten
Temperatuur 0°C
Vochtigheid 86%
Druk 1010 hPa
Zicht: 24.1 km
Geheel bewolkt op 9200 ft

METAR: CYRB 231600Z 13016KT 15SM OVC092 M00/M02 A2982 RMK AC8 SLP108

Tijdstip: 11:57 (16:57 UTC)

Verwachting

Dit bericht is 3 uur en het 27 minuten geleden gemaakt, om 13:30 UTC
Verwachting geldig van 23 om 13 UTC tot 24 om 12 UTC
Wind 15 kt uit het zuidoosten
Zicht: 10 km
Gebroken wolken op 8000 ft

TAF: CYRB 231330Z 2313/2412 14015KT P6SM BKN080 RMK NXT FCST BY 231800Z

Waarnemingen en weersverwachtingen van meer dan 4000 vliegvelden (METAR en TAF).

De beschikbare stations zijn de gele en rode punten op de kaart.

Ga met uw muis naar het station om de naam te zien.

Klik dan om waarnemingen en weersverwachtingen te zien.

kaart wijzigen: klik op de groene knoppen met een zwart kruis om in te zoomen, op de groene knop met een streepje om uit te zoomen of op de groene pijlen voor aangrenzende kaarten.


METAR-TAF: